Time;durP1;ratioP1;P1;durP2;ratioP2;P2;SDS_P1;SDS_P2;PMS_P1;PMS_P2;Temp;Humidity;BMP_temperature;BMP_pressure;BME280_temperature;BME280_humidity;BME280_pressure;Samples;Min_cycle;Max_cycle;Signal;HPM_P1;HPM_P2
2022/08/29 00:01:11;;;;;;;4.15;2.97;;;28.60;79.10;;;;;;5017790;28;20029;-52
2022/08/29 00:03:38;;;;;;;4.72;2.65;;;28.60;79.10;;;;;;5033308;28;20127;-53
2022/08/29 00:06:04;;;;;;;4.60;2.47;;;28.60;79.00;;;;;;5033485;28;20064;-52
2022/08/29 00:08:30;;;;;;;3.65;2.80;;;28.60;79.00;;;;;;5000837;28;20021;-53
2022/08/29 00:10:56;;;;;;;3.40;2.60;;;28.60;79.00;;;;;;4992651;28;20037;-52
2022/08/29 00:13:22;;;;;;;3.35;2.78;;;28.70;79.00;;;;;;5012565;28;20052;-53
2022/08/29 00:15:48;;;;;;;2.88;2.58;;;28.70;79.00;;;;;;4997423;28;20037;-52
2022/08/29 00:18:16;;;;;;;2.80;2.20;;;28.70;78.90;;;;;;5013353;28;20041;-53
2022/08/29 00:20:43;;;;;;;2.65;2.45;;;28.70;78.90;;;;;;4981499;28;20026;-52
2022/08/29 00:23:09;;;;;;;2.83;2.53;;;28.70;78.90;;;;;;4997343;28;20116;-52
2022/08/29 00:25:37;;;;;;;2.83;2.42;;;28.70;78.90;;;;;;4997072;28;20033;-53
2022/08/29 00:28:04;;;;;;;2.53;2.33;;;28.70;78.90;;;;;;4981282;28;20030;-53
2022/08/29 00:30:31;;;;;;;3.10;2.50;;;28.70;78.90;;;;;;5013651;28;20037;-53
2022/08/29 00:32:57;;;;;;;3.72;2.63;;;28.70;78.80;;;;;;5013311;28;20072;-52
2022/08/29 00:35:27;;;;;;;2.97;2.70;;;28.70;78.80;;;;;;5013252;28;20038;-52
2022/08/29 00:37:54;;;;;;;4.47;2.58;;;28.70;78.80;;;;;;4981086;28;20029;-52
2022/08/29 00:40:25;;;;;;;4.60;2.80;;;28.70;78.80;;;;;;4996919;28;20026;-53
2022/08/29 00:42:52;;;;;;;2.55;2.35;;;28.70;78.80;;;;;;4996984;28;20455;-54
2022/08/29 00:45:18;;;;;;;3.17;2.38;;;28.70;78.80;;;;;;4996958;28;20050;-53
2022/08/29 00:47:51;;;;;;;3.28;2.40;;;28.70;78.80;;;;;;4997029;28;20061;-52
2022/08/29 00:50:23;;;;;;;2.60;2.17;;;28.70;78.70;;;;;;4996329;28;20026;-52
2022/08/29 00:52:49;;;;;;;2.67;2.40;;;28.70;78.70;;;;;;4981065;28;20423;-53
2022/08/29 00:55:21;;;;;;;3.05;2.45;;;28.70;78.70;;;;;;5013066;28;20069;-53
2022/08/29 00:57:57;;;;;;;2.60;2.38;;;28.70;78.70;;;;;;5012930;28;20026;-52
2022/08/29 01:00:24;;;;;;;6.32;2.42;;;28.70;78.70;;;;;;4997944;28;20121;-53
2022/08/29 01:02:50;;;;;;;2.78;2.28;;;28.70;78.70;;;;;;4996104;28;20057;-52
2022/08/29 01:05:18;;;;;;;2.67;2.15;;;28.70;78.60;;;;;;5012895;28;20499;-53
2022/08/29 01:07:46;;;;;;;2.55;2.30;;;28.70;78.60;;;;;;4981017;28;20037;-52
2022/08/29 01:12:14;;;;;;;3.53;2.28;;;28.80;78.60;;;;;;4995806;28;20018;-53
2022/08/29 01:13:02;;;;;;;2.75;2.15;;;28.70;78.60;;;;;;4985993;28;20046;-54
2022/08/29 01:15:29;;;;;;;2.63;2.15;;;28.70;78.60;;;;;;4996337;28;20069;-53
2022/08/29 01:17:56;;;;;;;3.40;2.53;;;28.70;78.60;;;;;;4996505;28;20431;-53
2022/08/29 01:20:30;;;;;;;3.13;2.58;;;28.70;78.60;;;;;;4996149;28;20076;-52
2022/08/29 01:22:59;;;;;;;2.97;2.30;;;28.70;78.50;;;;;;4981430;28;20029;-53
2022/08/29 01:25:30;;;;;;;2.67;2.30;;;28.70;78.50;;;;;;4980397;28;20078;-52
2022/08/29 01:28:02;;;;;;;2.95;2.63;;;28.70;78.50;;;;;;4996215;28;20030;-53
2022/08/29 01:30:28;;;;;;;2.40;2.20;;;28.70;78.50;;;;;;4980782;28;20030;-53
2022/08/29 01:32:56;;;;;;;3.05;2.42;;;28.70;78.50;;;;;;4996033;28;20033;-52
2022/08/29 01:35:24;;;;;;;3.42;2.15;;;28.70;78.50;;;;;;5012160;28;20387;-53
2022/08/29 01:37:50;;;;;;;2.53;2.33;;;28.80;78.50;;;;;;4996027;28;20065;-52
2022/08/29 01:40:16;;;;;;;2.40;2.20;;;28.70;78.50;;;;;;4979258;28;20467;-52
2022/08/29 01:42:43;;;;;;;2.42;2.22;;;28.70;78.40;;;;;;4995796;28;20156;-53
2022/08/29 01:45:10;;;;;;;3.50;2.80;;;28.70;78.40;;;;;;4995891;28;20121;-53
2022/08/29 01:47:38;;;;;;;2.38;2.15;;;28.80;78.40;;;;;;4995464;28;20510;-53
2022/08/29 01:50:08;;;;;;;2.33;2.10;;;28.70;78.40;;;;;;4979579;28;20041;-53
2022/08/29 01:52:34;;;;;;;2.30;2.08;;;28.80;78.40;;;;;;5011822;28;20054;-53
2022/08/29 01:55:00;;;;;;;2.35;2.15;;;28.80;78.40;;;;;;4995443;28;20037;-53
2022/08/29 01:57:26;;;;;;;2.80;2.30;;;28.80;78.40;;;;;;5012103;28;20026;-53
2022/08/29 01:59:52;;;;;;;1.95;1.75;;;28.80;78.40;;;;;;4995855;28;20029;-53
2022/08/29 02:02:23;;;;;;;3.15;2.28;;;28.80;78.40;;;;;;4978983;28;20391;-53
2022/08/29 02:04:48;;;;;;;2.55;2.35;;;28.80;78.40;;;;;;5012030;28;20103;-52
2022/08/29 02:07:16;;;;;;;2.40;1.90;;;28.80;78.40;;;;;;4979337;28;20077;-52
2022/08/29 02:09:43;;;;;;;2.55;2.15;;;28.80;78.30;;;;;;4995469;28;20056;-52
2022/08/29 02:12:09;;;;;;;3.05;2.33;;;28.80;78.30;;;;;;5011309;28;20442;-53
2022/08/29 02:14:35;;;;;;;2.45;2.05;;;28.80;78.30;;;;;;4994948;28;20052;-54
2022/08/29 02:17:03;;;;;;;2.42;2.22;;;28.80;78.30;;;;;;4995012;28;20026;-52
2022/08/29 02:19:30;;;;;;;3.25;2.38;;;28.80;78.30;;;;;;4979347;28;20075;-53
2022/08/29 02:21:56;;;;;;;2.42;2.03;;;28.80;78.30;;;;;;5010324;28;20033;-52
2022/08/29 02:24:22;;;;;;;2.10;1.90;;;28.80;78.30;;;;;;4979093;28;20459;-53
2022/08/29 02:26:48;;;;;;;2.97;2.17;;;28.80;78.30;;;;;;4978912;28;20026;-52
2022/08/29 02:29:14;;;;;;;2.30;2.10;;;28.80;78.30;;;;;;4978729;28;20049;-52
2022/08/29 02:31:41;;;;;;;2.40;2.20;;;28.80;78.30;;;;;;4995118;28;20029;-53
2022/08/29 02:34:07;;;;;;;2.65;2.28;;;28.80;78.30;;;;;;4994950;28;20041;-53
2022/08/29 02:36:34;;;;;;;2.25;2.03;;;28.80;78.20;;;;;;5010954;28;20037;-53
2022/08/29 02:39:00;;;;;;;2.88;2.20;;;28.80;78.20;;;;;;5011066;28;20633;-52
2022/08/29 02:41:26;;;;;;;2.53;2.33;;;28.80;78.20;;;;;;4994848;28;20028;-52
2022/08/29 02:43:52;;;;;;;2.45;2.00;;;28.80;78.20;;;;;;4978700;28;20022;-53
2022/08/29 02:46:19;;;;;;;2.83;2.17;;;28.80;78.20;;;;;;4994668;28;20021;-52
2022/08/29 02:48:46;;;;;;;2.50;2.28;;;28.80;78.20;;;;;;4995105;28;20018;-53
2022/08/29 02:51:17;;;;;;;2.38;2.17;;;28.80;78.20;;;;;;4994441;28;20505;-54
2022/08/29 02:53:43;;;;;;;3.10;2.20;;;28.80;78.20;;;;;;4978898;28;20026;-52
2022/08/29 02:56:09;;;;;;;2.22;1.80;;;28.80;78.20;;;;;;4994451;28;20137;-52
2022/08/29 02:58:35;;;;;;;2.35;2.10;;;28.80;78.20;;;;;;4978035;28;20112;-52
2022/08/29 03:01:01;;;;;;;2.10;1.80;;;28.80;78.20;;;;;;4994452;28;20523;-53
2022/08/29 03:03:27;;;;;;;2.22;2.00;;;28.80;78.20;;;;;;4994327;28;20076;-52
2022/08/29 03:05:54;;;;;;;2.50;2.30;;;28.80;78.20;;;;;;4978148;28;20025;-55
2022/08/29 03:08:19;;;;;;;2.63;2.28;;;28.80;78.10;;;;;;5010403;28;20084;-53
2022/08/29 03:10:46;;;;;;;2.22;2.03;;;28.80;78.10;;;;;;4994374;28;20419;-53
2022/08/29 03:13:12;;;;;;;2.58;2.00;;;28.80;78.10;;;;;;4994385;28;20025;-53
2022/08/29 03:15:39;;;;;;;2.42;1.85;;;28.80;78.10;;;;;;5010493;28;20049;-53
2022/08/29 03:18:06;;;;;;;2.47;2.20;;;28.80;78.10;;;;;;4994094;28;20092;-52
2022/08/29 03:20:34;;;;;;;2.15;1.95;;;28.80;78.10;;;;;;4978399;28;20022;-52
2022/08/29 03:23:00;;;;;;;2.17;1.98;;;28.80;78.10;;;;;;4994427;28;20478;-53
2022/08/29 03:25:26;;;;;;;2.00;1.80;;;28.80;78.10;;;;;;4994081;28;20061;-54
2022/08/29 03:27:52;;;;;;;2.10;1.90;;;28.80;78.00;;;;;;4994470;28;20026;-53
2022/08/29 03:30:19;;;;;;;2.20;2.00;;;28.80;78.00;;;;;;4977882;28;20029;-53
2022/08/29 03:32:47;;;;;;;3.65;2.53;;;28.80;78.00;;;;;;4995810;28;20375;-53
2022/08/29 03:35:14;;;;;;;2.70;2.20;;;28.80;78.00;;;;;;4998501;28;20475;-55
2022/08/29 03:37:40;;;;;;;2.08;1.88;;;28.80;78.00;;;;;;5014736;28;20037;-52
2022/08/29 03:40:09;;;;;;;2.03;1.83;;;28.80;78.00;;;;;;5013943;28;20037;-53
2022/08/29 03:42:35;;;;;;;2.08;1.88;;;28.80;78.00;;;;;;4982003;28;20022;-52
2022/08/29 03:45:06;;;;;;;1.80;1.60;;;28.80;78.00;;;;;;5014478;28;20029;-53
2022/08/29 03:47:32;;;;;;;3.58;1.90;;;28.80;78.00;;;;;;4982047;28;20464;-53
2022/08/29 03:49:58;;;;;;;2.35;1.92;;;28.80;77.90;;;;;;4997609;28;20018;-52
2022/08/29 03:52:24;;;;;;;2.10;1.90;;;28.80;77.90;;;;;;4981812;28;20025;-53
2022/08/29 03:54:50;;;;;;;3.17;2.22;;;28.80;77.90;;;;;;4997637;28;20108;-53
2022/08/29 03:57:16;;;;;;;2.50;2.17;;;28.80;77.90;;;;;;4997960;28;20018;-53
2022/08/29 03:59:42;;;;;;;3.05;2.08;;;28.80;77.90;;;;;;4981636;28;20025;-53
2022/08/29 04:02:08;;;;;;;2.20;2.00;;;28.80;77.90;;;;;;4981112;28;20034;-53
2022/08/29 04:07:05;;;;;;;2.47;2.22;;;28.80;77.90;;;;;;4997935;28;20034;-52
2022/08/29 04:09:32;;;;;;;2.75;1.95;;;28.80;77.80;;;;;;4997772;28;20059;-52
2022/08/29 04:11:58;;;;;;;3.15;1.85;;;28.80;77.80;;;;;;4981388;28;20530;-53
2022/08/29 04:14:24;;;;;;;2.20;1.80;;;28.80;77.80;;;;;;4997514;28;20026;-53
2022/08/29 04:16:50;;;;;;;2.42;1.90;;;28.80;77.80;;;;;;4997649;28;20125;-53
2022/08/29 04:19:19;;;;;;;2.17;1.77;;;28.80;77.80;;;;;;4997426;28;20105;-54
2022/08/29 04:21:47;;;;;;;2.35;2.00;;;28.80;77.80;;;;;;4981350;28;20113;-53
2022/08/29 04:24:15;;;;;;;2.10;1.90;;;28.80;77.80;;;;;;5013353;28;20030;-54
2022/08/29 04:26:41;;;;;;;2.10;1.90;;;28.80;77.80;;;;;;4997371;28;20037;-52
2022/08/29 04:29:10;;;;;;;2.10;1.90;;;28.80;77.80;;;;;;4997077;28;20136;-52
2022/08/29 04:31:38;;;;;;;2.30;1.90;;;28.80;77.70;;;;;;5013280;28;20025;-54
2022/08/29 04:34:06;;;;;;;2.50;2.10;;;28.80;77.70;;;;;;4996815;28;20451;-53
2022/08/29 04:36:34;;;;;;;2.60;1.85;;;28.80;77.70;;;;;;4980729;28;20045;-53
2022/08/29 04:39:00;;;;;;;2.20;2.00;;;28.80;77.70;;;;;;4997393;28;20028;-53
2022/08/29 04:41:26;;;;;;;2.03;1.80;;;28.80;77.70;;;;;;4997094;28;20471;-52
2022/08/29 04:43:52;;;;;;;2.10;1.60;;;28.80;77.70;;;;;;5012401;28;20478;-52
2022/08/29 04:46:18;;;;;;;2.63;2.00;;;28.80;77.60;;;;;;4980540;28;20026;-53
2022/08/29 04:48:44;;;;;;;2.15;1.85;;;28.80;77.60;;;;;;4996876;28;20026;-54
2022/08/29 04:51:10;;;;;;;2.28;1.92;;;28.80;77.60;;;;;;4996933;28;20122;-53
2022/08/29 04:53:36;;;;;;;2.47;1.95;;;28.80;77.60;;;;;;4996587;28;20113;-53
2022/08/29 04:56:07;;;;;;;2.00;1.80;;;28.80;77.60;;;;;;4996425;28;20120;-53
2022/08/29 04:58:34;;;;;;;2.33;2.03;;;28.80;77.60;;;;;;4997230;28;20305;-53
2022/08/29 05:03:57;;;;;;;2.35;1.83;;;28.80;77.60;;;;;;5302491;22;20061;-52
2022/08/29 05:06:24;;;;;;;2.30;1.80;;;28.80;77.60;;;;;;4985035;28;20030;-52
2022/08/29 05:08:51;;;;;;;1.92;1.73;;;28.80;77.60;;;;;;5017165;28;20458;-52
2022/08/29 05:11:18;;;;;;;2.15;1.67;;;28.70;77.60;;;;;;4984693;28;20057;-52
2022/08/29 05:13:46;;;;;;;2.03;1.80;;;28.80;77.60;;;;;;4984942;28;20541;-52
2022/08/29 05:16:14;;;;;;;2.33;1.98;;;28.80;77.60;;;;;;5016988;28;20033;-51
2022/08/29 05:18:43;;;;;;;2.08;1.88;;;28.80;77.60;;;;;;5000661;28;20120;-52
2022/08/29 05:21:09;;;;;;;2.05;1.85;;;28.80;77.50;;;;;;5000928;28;20025;-52
2022/08/29 05:23:35;;;;;;;2.50;1.70;;;28.80;77.50;;;;;;5000683;28;20029;-51
2022/08/29 05:26:04;;;;;;;2.22;1.67;;;28.70;77.50;;;;;;4984328;28;20036;-52
2022/08/29 05:28:31;;;;;;;2.50;1.92;;;28.70;77.50;;;;;;4984547;28;20030;-52
2022/08/29 05:30:58;;;;;;;1.70;1.40;;;28.80;77.50;;;;;;5000654;28;20056;-52
2022/08/29 05:33:26;;;;;;;1.77;1.60;;;28.80;77.50;;;;;;4984417;28;20475;-52
2022/08/29 05:35:52;;;;;;;1.60;1.50;;;28.80;77.50;;;;;;4984848;28;20478;-52
2022/08/29 05:38:18;;;;;;;1.90;1.70;;;28.70;77.50;;;;;;4999947;28;20497;-53
2022/08/29 05:40:45;;;;;;;3.35;2.28;;;28.70;77.50;;;;;;5000491;28;20104;-52
2022/08/29 05:43:11;;;;;;;2.13;1.90;;;28.70;77.50;;;;;;5016389;28;20060;-52
2022/08/29 05:45:37;;;;;;;3.25;1.98;;;28.80;77.50;;;;;;5000319;28;20032;-52
2022/08/29 05:48:05;;;;;;;2.40;2.20;;;28.80;77.50;;;;;;4984006;28;20502;-52
2022/08/29 05:50:31;;;;;;;2.75;2.05;;;28.80;77.50;;;;;;5000196;28;20035;-52
2022/08/29 05:52:57;;;;;;;3.08;1.88;;;28.70;77.50;;;;;;5016304;28;20112;-52
2022/08/29 05:55:23;;;;;;;2.33;1.90;;;28.70;77.50;;;;;;4983764;28;20037;-52
2022/08/29 05:57:52;;;;;;;2.65;2.10;;;28.80;77.40;;;;;;5016358;28;20521;-58
2022/08/29 06:00:18;;;;;;;4.47;2.60;;;28.70;77.40;;;;;;5002171;28;20404;-49
2022/08/29 06:02:44;;;;;;;4.93;2.20;;;28.80;77.40;;;;;;4992434;28;20064;-49
2022/08/29 06:05:10;;;;;;;2.67;2.00;;;28.70;77.00;;;;;;4955480;28;20035;-49
2022/08/29 06:07:36;;;;;;;5.63;2.33;;;28.60;76.80;;;;;;4992734;28;20030;-47
2022/08/29 06:10:08;;;;;;;3.47;2.30;;;28.50;76.70;;;;;;4976561;28;20032;-49
2022/08/29 06:12:35;;;;;;;5.35;3.63;;;28.40;76.70;;;;;;4993892;28;20046;-49
2022/08/29 06:15:01;;;;;;;4.20;2.42;;;28.30;76.70;;;;;;4980005;28;20034;-47
2022/08/29 06:17:27;;;;;;;5.22;2.55;;;28.20;76.70;;;;;;4979760;28;20026;-47
2022/08/29 06:19:53;;;;;;;5.97;2.70;;;28.20;76.70;;;;;;4995978;28;20029;-52
2022/08/29 06:35:02;;;;;;;3.20;1.83;;;28.10;77.10;;;;;;5119761;27;20438;-51
2022/08/29 06:37:27;;;;;;;4.25;2.00;;;28.50;76.90;;;;;;5070346;28;20047;-53
2022/08/29 06:39:53;;;;;;;3.67;1.95;;;28.50;76.90;;;;;;5070280;28;20036;-52
2022/08/29 06:42:23;;;;;;;3.72;2.28;;;28.50;76.90;;;;;;5070377;28;20419;-54
2022/08/29 06:44:49;;;;;;;4.10;2.42;;;28.50;76.90;;;;;;5071344;28;20020;-51
2022/08/29 06:47:15;;;;;;;5.00;2.72;;;28.50;76.90;;;;;;5070243;28;20385;-52
2022/08/29 06:49:41;;;;;;;4.53;2.72;;;28.60;76.90;;;;;;5070468;28;20021;-52
2022/08/29 06:52:07;;;;;;;7.93;2.60;;;28.60;76.90;;;;;;5070239;28;20537;-52
2022/08/29 06:54:33;;;;;;;3.15;2.03;;;28.60;76.90;;;;;;5070565;28;20032;-51
2022/08/29 06:56:59;;;;;;;4.63;2.75;;;28.60;76.90;;;;;;5070018;28;20401;-55
2022/08/29 06:59:25;;;;;;;7.10;2.33;;;28.60;77.00;;;;;;5070537;28;20040;-52
2022/08/29 07:01:51;;;;;;;4.72;2.38;;;28.60;77.00;;;;;;5070481;28;20028;-51
2022/08/29 07:04:17;;;;;;;6.00;2.17;;;28.60;77.00;;;;;;5070267;28;20481;-51
2022/08/29 07:06:43;;;;;;;3.00;2.00;;;28.60;77.00;;;;;;5070203;28;20027;-52
2022/08/29 07:09:09;;;;;;;4.28;2.30;;;28.60;77.00;;;;;;5070097;28;20507;-52
2022/08/29 07:11:38;;;;;;;2.90;2.30;;;28.60;77.00;;;;;;5070069;28;20393;-52
2022/08/29 07:14:05;;;;;;;3.17;2.50;;;28.60;77.00;;;;;;5070115;28;20032;-52
2022/08/29 07:16:33;;;;;;;3.83;2.22;;;28.60;77.00;;;;;;5070427;28;20027;-52
2022/08/29 07:19:02;;;;;;;4.05;2.35;;;28.60;77.00;;;;;;5086647;28;20047;-56
2022/08/29 07:21:29;;;;;;;4.85;2.20;;;28.60;77.00;;;;;;5086864;28;20058;-52
2022/08/29 07:23:57;;;;;;;3.60;2.05;;;28.60;77.00;;;;;;5086894;28;20105;-52
2022/08/29 07:26:29;;;;;;;6.68;3.08;;;28.60;77.00;;;;;;5069835;28;20485;-52
2022/08/29 07:28:59;;;;;;;3.03;2.28;;;28.60;77.00;;;;;;5053611;28;20028;-52
2022/08/29 07:31:26;;;;;;;3.45;2.30;;;28.60;77.00;;;;;;5086549;28;20028;-51
2022/08/29 07:33:52;;;;;;;2.88;1.95;;;28.70;77.00;;;;;;5084841;28;20048;-51
2022/08/29 07:36:18;;;;;;;4.57;2.60;;;28.70;77.00;;;;;;5072828;28;20024;-51
2022/08/29 07:38:44;;;;;;;5.38;2.10;;;28.70;77.10;;;;;;5056010;28;20032;-51
2022/08/29 07:41:13;;;;;;;4.05;2.08;;;28.60;77.10;;;;;;5056077;28;20074;-52
2022/08/29 07:43:41;;;;;;;3.00;1.95;;;28.60;77.10;;;;;;5072689;28;20044;-55
2022/08/29 07:46:09;;;;;;;2.35;2.15;;;28.70;77.10;;;;;;5056161;28;20053;-52
2022/08/29 07:48:35;;;;;;;3.70;2.20;;;28.70;77.10;;;;;;5055862;28;20462;-52
2022/08/29 07:51:05;;;;;;;2.42;1.88;;;28.70;77.10;;;;;;5055878;28;20024;-52
2022/08/29 07:53:31;;;;;;;3.20;2.40;;;28.70;77.10;;;;;;5056518;28;20481;-51
2022/08/29 07:55:57;;;;;;;2.33;2.05;;;28.70;77.10;;;;;;5039812;28;20032;-52
2022/08/29 07:58:24;;;;;;;3.30;2.00;;;28.70;77.20;;;;;;5056056;28;20032;-53
2022/08/29 08:00:49;;;;;;;3.83;2.20;;;28.70;77.20;;;;;;5072325;28;20074;-53
2022/08/29 08:03:15;;;;;;;3.88;2.30;;;28.70;77.20;;;;;;5039071;28;20040;-53
2022/08/29 08:05:41;;;;;;;3.40;2.28;;;28.70;77.20;;;;;;5056025;28;20056;-53
2022/08/29 08:08:08;;;;;;;3.05;2.20;;;28.70;77.20;;;;;;5055797;28;20028;-51
2022/08/29 08:10:37;;;;;;;2.90;2.05;;;28.70;77.20;;;;;;5039702;28;20029;-52
2022/08/29 08:13:03;;;;;;;3.33;2.28;;;28.70;77.20;;;;;;5072182;28;20048;-52
2022/08/29 08:15:29;;;;;;;2.65;2.00;;;28.70;77.20;;;;;;5055788;28;20476;-53
2022/08/29 08:17:55;;;;;;;3.92;2.13;;;28.70;77.30;;;;;;5072250;28;20063;-52
2022/08/29 08:20:21;;;;;;;5.03;2.35;;;28.70;77.30;;;;;;5055242;28;20461;-52
2022/08/29 08:22:47;;;;;;;3.38;2.30;;;28.70;77.30;;;;;;5038844;28;20040;-52
2022/08/29 08:25:13;;;;;;;4.03;2.15;;;28.70;77.30;;;;;;5038662;28;20568;-52
2022/08/29 08:27:39;;;;;;;2.72;2.05;;;28.70;77.30;;;;;;5055572;28;20035;-52
2022/08/29 08:30:06;;;;;;;2.67;2.20;;;28.70;77.30;;;;;;5038609;28;20532;-53
2022/08/29 08:32:32;;;;;;;3.05;2.10;;;28.70;77.30;;;;;;5038927;28;20028;-52
2022/08/29 08:34:58;;;;;;;2.38;2.05;;;28.70;77.30;;;;;;5055061;28;20051;-52
2022/08/29 08:37:24;;;;;;;3.10;2.30;;;28.70;77.30;;;;;;5038549;28;20173;-52
2022/08/29 08:39:49;;;;;;;2.83;2.17;;;28.70;77.30;;;;;;5055395;28;20056;-52
2022/08/29 08:42:27;;;;;;;2.03;1.83;;;28.70;77.30;;;;;;5038675;28;20039;-52
2022/08/29 08:44:59;;;;;;;3.25;2.15;;;28.70;77.30;;;;;;5056274;28;20036;-53
2022/08/29 08:47:31;;;;;;;3.15;2.15;;;28.70;77.30;;;;;;5037862;28;20031;-53
2022/08/29 08:50:04;;;;;;;2.28;1.80;;;28.70;77.30;;;;;;5038982;28;20028;-52
2022/08/29 08:52:42;;;;;;;2.95;2.10;;;28.70;77.30;;;;;;5039305;28;20090;-52
2022/08/29 08:55:14;;;;;;;2.58;2.10;;;28.80;77.30;;;;;;5038944;28;20074;-53
2022/08/29 08:57:48;;;;;;;4.97;2.10;;;28.80;77.30;;;;;;5039008;28;20474;-53
2022/08/29 09:00:14;;;;;;;1.95;1.70;;;28.70;77.30;;;;;;5071623;28;20115;-52
2022/08/29 09:02:46;;;;;;;3.70;2.67;;;28.80;77.30;;;;;;5054715;28;20044;-52
2022/08/29 09:05:18;;;;;;;2.88;2.00;;;28.70;77.30;;;;;;5038593;28;20120;-52
2022/08/29 09:07:48;;;;;;;3.00;1.85;;;28.80;77.30;;;;;;5038601;28;20031;-52
2022/08/29 09:10:27;;;;;;;2.53;2.03;;;28.70;77.30;;;;;;5038216;28;20070;-52
2022/08/29 09:12:58;;;;;;;4.18;2.13;;;28.80;77.40;;;;;;5055656;28;20024;-53
2022/08/29 09:15:30;;;;;;;2.20;1.80;;;28.80;77.40;;;;;;5038536;28;20024;-53
2022/08/29 09:17:59;;;;;;;2.97;2.17;;;28.80;77.40;;;;;;5055453;28;20432;-53
2022/08/29 09:20:29;;;;;;;2.47;2.10;;;28.80;77.40;;;;;;5038196;28;20024;-52
2022/08/29 09:23:00;;;;;;;2.33;1.63;;;28.80;77.40;;;;;;5054249;28;20043;-52
2022/08/29 09:25:28;;;;;;;2.15;1.90;;;28.80;77.40;;;;;;5054941;28;20025;-53
2022/08/29 09:27:54;;;;;;;3.20;2.10;;;28.80;77.40;;;;;;5071001;28;20115;-52
2022/08/29 09:30:24;;;;;;;2.90;2.17;;;28.80;77.40;;;;;;5054354;28;20115;-54
2022/08/29 09:32:56;;;;;;;2.42;2.22;;;28.80;77.40;;;;;;5053978;28;20024;-52
2022/08/29 09:35:32;;;;;;;2.15;1.90;;;28.80;77.30;;;;;;5038002;28;20021;-53
2022/08/29 09:38:03;;;;;;;3.25;1.90;;;28.80;77.30;;;;;;5054214;28;20047;-53
2022/08/29 09:40:35;;;;;;;4.32;2.13;;;28.80;77.30;;;;;;5054130;28;20024;-53
2022/08/29 09:43:02;;;;;;;2.13;1.60;;;28.80;77.40;;;;;;5037346;28;20066;-53
2022/08/29 09:45:28;;;;;;;2.20;1.88;;;28.80;77.40;;;;;;5070585;28;20109;-52
2022/08/29 09:48:00;;;;;;;5.25;2.03;;;28.80;77.40;;;;;;5053853;28;20071;-52
2022/08/29 09:50:27;;;;;;;3.00;2.15;;;28.80;77.40;;;;;;5038061;28;20462;-52
2022/08/29 09:52:57;;;;;;;2.63;2.10;;;28.80;77.40;;;;;;5037252;28;20047;-53
2022/08/29 09:55:24;;;;;;;3.03;1.70;;;28.80;77.40;;;;;;5070532;28;20104;-52
2022/08/29 09:57:54;;;;;;;2.33;1.80;;;28.80;77.40;;;;;;5037127;28;20440;-52
2022/08/29 10:00:25;;;;;;;3.08;2.03;;;28.80;77.40;;;;;;5070290;28;20020;-52
2022/08/29 10:02:54;;;;;;;2.45;1.73;;;28.80;77.40;;;;;;5054540;28;20036;-51
2022/08/29 10:05:26;;;;;;;2.22;1.80;;;28.80;77.40;;;;;;5053838;28;20428;-55
2022/08/29 10:07:52;;;;;;;2.17;1.90;;;28.80;77.40;;;;;;5037804;28;20465;-52
2022/08/29 10:10:24;;;;;;;3.10;2.17;;;28.80;77.40;;;;;;5053774;28;20024;-52
2022/08/29 10:12:53;;;;;;;2.60;2.00;;;28.80;77.40;;;;;;5053850;28;20534;-52
2022/08/29 10:15:26;;;;;;;2.55;2.13;;;28.80;77.40;;;;;;5037535;28;20035;-53
2022/08/29 10:20:37;;;;;;;2.15;1.95;;;28.80;77.30;;;;;;5054397;28;20021;-51
2022/08/29 10:23:14;;;;;;;2.88;2.00;;;28.80;77.40;;;;;;5053230;28;20036;-52
2022/08/29 10:25:40;;;;;;;2.42;2.00;;;28.80;77.30;;;;;;5037909;28;20024;-54
2022/08/29 10:28:09;;;;;;;2.08;1.88;;;28.80;77.30;;;;;;5053374;28;20024;-52
2022/08/29 10:30:41;;;;;;;2.72;1.90;;;28.80;77.40;;;;;;5037584;28;20024;-52
2022/08/29 10:33:11;;;;;;;2.55;1.80;;;28.80;77.40;;;;;;5036853;28;20045;-51
2022/08/29 10:35:48;;;;;;;1.95;1.73;;;28.80;77.40;;;;;;5036864;28;20023;-51
2022/08/29 10:38:21;;;;;;;3.95;2.03;;;28.80;77.30;;;;;;5038855;28;20028;-52
2022/08/29 10:40:57;;;;;;;3.47;2.20;;;28.80;77.30;;;;;;5037414;28;20140;-52
2022/08/29 10:43:29;;;;;;;2.33;1.80;;;28.80;77.40;;;;;;5053104;28;20040;-51
2022/08/29 10:46:06;;;;;;;2.60;2.28;;;28.80;77.40;;;;;;5037512;28;20533;-52
2022/08/29 10:48:39;;;;;;;2.35;1.77;;;28.80;77.40;;;;;;5053149;28;20477;-52
2022/08/29 10:51:15;;;;;;;2.78;2.20;;;28.80;77.40;;;;;;5026339;28;20479;-51
2022/08/29 10:53:46;;;;;;;1.70;1.55;;;28.80;77.40;;;;;;5032898;28;20060;-53
2022/08/29 10:56:18;;;;;;;3.20;2.00;;;28.80;77.50;;;;;;5033556;28;20075;-52
2022/08/29 10:58:48;;;;;;;2.40;1.80;;;28.80;77.50;;;;;;5033052;28;20027;-51
2022/08/29 11:01:21;;;;;;;2.50;2.05;;;28.90;77.50;;;;;;5032914;28;20033;-53
2022/08/29 11:03:53;;;;;;;2.45;2.00;;;28.90;77.50;;;;;;5049215;28;20492;-52
2022/08/29 11:06:25;;;;;;;1.95;1.60;;;28.90;77.60;;;;;;5032981;28;20375;-56
2022/08/29 11:08:58;;;;;;;2.70;2.40;;;28.90;77.50;;;;;;5033317;28;20021;-52
2022/08/29 11:11:25;;;;;;;2.35;2.13;;;28.90;77.50;;;;;;5036360;28;20025;-52
2022/08/29 11:13:58;;;;;;;2.92;2.40;;;28.90;77.60;;;;;;5036938;28;20031;-52
2022/08/29 11:16:30;;;;;;;3.38;2.20;;;28.90;77.60;;;;;;5053074;28;20051;-52
2022/08/29 11:18:59;;;;;;;2.88;2.40;;;29.00;77.70;;;;;;5036317;28;20063;-52
2022/08/29 11:21:31;;;;;;;3.65;2.55;;;29.00;77.70;;;;;;5036733;28;20029;-52
2022/08/29 11:24:01;;;;;;;2.85;2.30;;;29.00;77.80;;;;;;5036419;28;20390;-51
2022/08/29 11:26:34;;;;;;;2.83;2.53;;;29.00;77.90;;;;;;5037256;28;20451;-50
2022/08/29 11:29:06;;;;;;;3.55;2.30;;;29.00;78.10;;;;;;5037342;28;20027;-48
2022/08/29 11:31:45;;;;;;;3.33;2.72;;;29.00;78.30;;;;;;5039705;28;20032;-48
2022/08/29 11:34:18;;;;;;;4.57;2.90;;;29.00;78.30;;;;;;5017087;28;20077;-49
2022/08/29 11:36:47;;;;;;;12.88;3.05;;;29.00;78.40;;;;;;5023148;28;20034;-48
2022/08/29 11:39:17;;;;;;;4.88;2.90;;;29.00;77.50;;;;;;5011991;28;20025;-48
2022/08/29 11:41:48;;;;;;;3.47;3.17;;;29.10;76.60;;;;;;5000459;28;20022;-48
2022/08/29 11:44:26;;;;;;;4.43;2.72;;;29.20;76.10;;;;;;5000667;28;20041;-48
2022/08/29 11:46:53;;;;;;;3.20;2.60;;;29.30;75.90;;;;;;5026072;28;20086;-53
2022/08/29 11:49:21;;;;;;;3.70;2.72;;;29.40;75.60;;;;;;5036062;28;20025;-49
2022/08/29 11:51:52;;;;;;;3.22;2.70;;;29.50;75.40;;;;;;5035931;28;20033;-49
2022/08/29 11:54:27;;;;;;;4.55;2.42;;;29.60;74.80;;;;;;5036338;28;20397;-50
2022/08/29 11:56:59;;;;;;;7.22;2.85;;;29.70;74.70;;;;;;5036456;28;20071;-52
2022/08/29 11:59:35;;;;;;;3.80;3.10;;;29.70;74.70;;;;;;5036273;28;20028;-52
2022/08/29 12:02:01;;;;;;;4.30;2.90;;;29.70;74.70;;;;;;5036182;28;20031;-52
2022/08/29 12:04:33;;;;;;;3.22;2.67;;;29.70;74.80;;;;;;5052446;28;20444;-52
2022/08/29 12:07:01;;;;;;;3.47;2.80;;;29.60;74.90;;;;;;5035860;28;20428;-53
2022/08/29 12:09:37;;;;;;;3.70;2.45;;;29.50;75.00;;;;;;5035674;28;20032;-55
2022/08/29 12:12:03;;;;;;;4.22;2.75;;;29.50;75.20;;;;;;5037318;28;20025;-52
2022/08/29 12:14:34;;;;;;;4.43;2.88;;;29.50;75.30;;;;;;5035731;28;20139;-53
2022/08/29 12:17:05;;;;;;;3.85;2.50;;;29.40;75.40;;;;;;5035708;28;20079;-52
2022/08/29 12:19:38;;;;;;;3.50;2.67;;;29.40;75.60;;;;;;5035875;28;20025;-52
2022/08/29 12:22:03;;;;;;;3.25;2.47;;;29.40;75.60;;;;;;5035434;28;20504;-52
2022/08/29 12:24:38;;;;;;;4.20;2.30;;;29.30;75.70;;;;;;5035339;28;20067;-54
2022/08/29 12:27:20;;;;;;;;;;;29.30;75.80;;;;;;5035928;28;20111;-53
2022/08/29 12:29:46;;;;;;;2.95;2.40;;;29.30;75.90;;;;;;5052367;28;20870;-52
2022/08/29 12:32:18;;;;;;;3.85;2.53;;;29.30;75.90;;;;;;5035567;28;20389;-52
2022/08/29 12:34:51;;;;;;;3.15;2.25;;;29.30;76.00;;;;;;5035206;28;20053;-53
2022/08/29 12:37:26;;;;;;;5.88;2.85;;;29.30;76.10;;;;;;5035273;28;20116;-52
2022/08/29 12:39:58;;;;;;;3.17;2.58;;;29.20;76.10;;;;;;5035422;28;20072;-52
2022/08/29 12:42:31;;;;;;;4.85;2.65;;;29.20;76.10;;;;;;5035584;28;20028;-52
2022/08/29 12:45:02;;;;;;;5.35;2.60;;;29.20;76.20;;;;;;5034976;28;20045;-54
2022/08/29 12:47:36;;;;;;;2.85;2.10;;;29.20;76.20;;;;;;5034843;28;20035;-53
2022/08/29 12:50:13;;;;;;;3.67;2.70;;;29.20;76.20;;;;;;5051885;28;20078;-53
2022/08/29 12:52:39;;;;;;;3.70;2.60;;;29.20;76.30;;;;;;5036310;28;20021;-53
2022/08/29 12:55:11;;;;;;;3.88;2.60;;;29.20;76.30;;;;;;5034783;28;20017;-53
2022/08/29 12:57:43;;;;;;;4.60;2.50;;;29.20;76.40;;;;;;5035008;28;20359;-53
2022/08/29 13:00:18;;;;;;;2.95;2.22;;;29.20;76.40;;;;;;5034627;28;20025;-52
2022/08/29 13:02:57;;;;;;;3.03;2.50;;;29.20;76.40;;;;;;5035285;28;20116;-52
2022/08/29 13:05:25;;;;;;;4.43;2.55;;;29.20;76.40;;;;;;5035332;28;20025;-52
2022/08/29 13:07:55;;;;;;;3.33;2.40;;;29.20;76.40;;;;;;5034587;28;20497;-52
2022/08/29 13:10:22;;;;;;;3.33;2.60;;;29.20;76.40;;;;;;5034803;28;20493;-52
2022/08/29 13:12:48;;;;;;;3.35;2.42;;;29.20;76.40;;;;;;5034740;28;20537;-53
2022/08/29 13:15:19;;;;;;;3.05;2.58;;;29.20;76.50;;;;;;5034310;28;20128;-53